Time;durP1;ratioP1;P1;durP2;ratioP2;P2;SDS_P1;SDS_P2;PMS_P1;PMS_P2;Temp;Humidity;BMP_temperature;BMP_pressure;BME280_temperature;BME280_humidity;BME280_pressure;Samples;Min_cycle;Max_cycle;Signal;HPM_P1;HPM_P2
2022/05/06 00:01:58;;;;;;;8.93;6.75;;;;;;;;;;4903381;29;20171;-87
2022/05/06 00:04:24;;;;;;;6.35;5.38;;;;;;;;;;4903484;29;20035;-88
2022/05/06 00:06:52;;;;;;;6.05;5.30;;;;;;;;;;4903358;29;20036;-87
2022/05/06 00:09:18;;;;;;;7.57;6.35;;;;;;;;;;4903525;29;20024;-87
2022/05/06 00:11:44;;;;;;;7.50;6.70;;;;;;;;;;4921364;29;20040;-86
2022/05/06 00:14:10;;;;;;;11.07;5.82;;;;;;;;;;4902983;29;20028;-85
2022/05/06 00:16:36;;;;;;;9.98;5.45;;;;;;;;;;4903388;29;20046;-87
2022/05/06 00:19:02;;;;;;;7.40;6.47;;;;;;;;;;4920267;29;20080;-86
2022/05/06 00:21:28;;;;;;;7.63;6.93;;;;;;;;;;4903695;29;20032;-87
2022/05/06 00:23:55;;;;;;;7.80;7.10;;;;;;;;;;4903992;29;20030;-86
2022/05/06 00:26:21;;;;;;;9.85;7.07;;;;;;;;;;4903282;29;20545;-86
2022/05/06 00:28:47;;;;;;;8.40;6.60;;;;;;;;;;4918898;29;20528;-85
2022/05/06 00:31:13;;;;;;;7.10;6.40;;;;;;;;;;4909541;29;20049;-87
2022/05/06 00:33:40;;;;;;;8.77;7.95;;;;;;;;;;4915141;29;20024;-90
2022/05/06 00:36:06;;;;;;;9.23;7.60;;;;;;;;;;4915127;29;20060;-87
2022/05/06 00:38:32;;;;;;;7.93;7.15;;;;;;;;;;4915345;29;20475;-87
2022/05/06 00:40:59;;;;;;;7.07;6.38;;;;;;;;;;4915329;29;20035;-90
2022/05/06 00:43:25;;;;;;;9.05;8.15;;;;;;;;;;4900471;29;20107;-86
2022/05/06 00:45:52;;;;;;;9.50;8.60;;;;;;;;;;4916333;29;20028;-87
2022/05/06 00:48:19;;;;;;;8.90;7.80;;;;;;;;;;4915111;29;20063;-86
2022/05/06 00:50:45;;;;;;;8.75;7.85;;;;;;;;;;4915022;29;20084;-86
2022/05/06 00:53:15;;;;;;;8.55;7.32;;;;;;;;;;4915174;29;20573;-86
2022/05/06 00:55:41;;;;;;;10.30;9.15;;;;;;;;;;4914914;29;20032;-87
2022/05/06 00:58:08;;;;;;;8.32;7.53;;;;;;;;;;4914905;29;20028;-89
2022/05/06 01:00:34;;;;;;;8.80;7.90;;;;;;;;;;4914725;29;20397;-87
2022/05/06 01:03:01;;;;;;;8.15;7.40;;;;;;;;;;4914963;29;20048;-89
2022/05/06 01:05:27;;;;;;;9.15;8.25;;;;;;;;;;4914775;29;20063;-88
2022/05/06 01:07:53;;;;;;;8.13;7.32;;;;;;;;;;4900674;29;20028;-87
2022/05/06 01:10:21;;;;;;;10.35;7.90;;;;;;;;;;4900324;29;20095;-90
2022/05/06 01:12:48;;;;;;;8.65;7.50;;;;;;;;;;4914808;29;20043;-87
2022/05/06 01:15:20;;;;;;;11.98;8.57;;;;;;;;;;4914873;29;20044;-87
2022/05/06 01:17:47;;;;;;;9.05;8.15;;;;;;;;;;4914600;29;20035;-86
2022/05/06 01:20:16;;;;;;;9.73;7.22;;;;;;;;;;4915650;29;20056;-85
2022/05/06 01:22:46;;;;;;;8.38;7.47;;;;;;;;;;4918231;29;20032;-86
2022/05/06 01:25:12;;;;;;;9.80;8.88;;;;;;;;;;4914488;29;20032;-85
2022/05/06 01:27:41;;;;;;;10.30;8.45;;;;;;;;;;4914635;29;20025;-86
2022/05/06 01:30:08;;;;;;;9.38;8.45;;;;;;;;;;4914280;29;20064;-90
2022/05/06 01:32:34;;;;;;;8.93;7.55;;;;;;;;;;4914462;29;20047;-87
2022/05/06 01:35:01;;;;;;;10.48;8.98;;;;;;;;;;4914499;29;20127;-86
2022/05/06 01:37:28;;;;;;;9.20;8.20;;;;;;;;;;4914433;29;20021;-90
2022/05/06 01:39:56;;;;;;;11.43;8.90;;;;;;;;;;4900165;29;20051;-87
2022/05/06 01:42:23;;;;;;;10.05;9.05;;;;;;;;;;4914295;29;20542;-89
2022/05/06 01:44:51;;;;;;;9.25;8.35;;;;;;;;;;4914323;29;20392;-85
2022/05/06 01:47:19;;;;;;;11.30;8.02;;;;;;;;;;4914696;29;20096;-84
2022/05/06 01:49:49;;;;;;;10.00;8.13;;;;;;;;;;4900197;29;20052;-87
2022/05/06 01:52:17;;;;;;;9.18;8.38;;;;;;;;;;4900417;29;20039;-86
2022/05/06 01:54:43;;;;;;;11.52;9.02;;;;;;;;;;4914234;29;20040;-86
2022/05/06 01:57:09;;;;;;;9.63;8.63;;;;;;;;;;4914837;29;20039;-88
2022/05/06 01:59:36;;;;;;;9.55;8.48;;;;;;;;;;4919065;29;20028;-87
2022/05/06 02:02:02;;;;;;;9.40;8.50;;;;;;;;;;4916485;29;20120;-87
2022/05/06 02:07:13;;;;;;;10.25;8.77;;;;;;;;;;4901918;29;20047;-87
2022/05/06 02:09:39;;;;;;;9.35;8.45;;;;;;;;;;4901235;29;20044;-87
2022/05/06 02:12:05;;;;;;;10.50;9.50;;;;;;;;;;4914126;29;20474;-87
2022/05/06 02:14:33;;;;;;;9.23;8.32;;;;;;;;;;4914117;29;20043;-86
2022/05/06 02:17:00;;;;;;;9.77;8.05;;;;;;;;;;4914145;29;20032;-90
2022/05/06 02:19:26;;;;;;;9.82;8.57;;;;;;;;;;4914451;29;20028;-87
2022/05/06 02:21:52;;;;;;;8.88;7.60;;;;;;;;;;4914536;29;20032;-87
2022/05/06 02:24:19;;;;;;;10.00;7.88;;;;;;;;;;4914129;29;20039;-90
2022/05/06 02:26:45;;;;;;;9.70;8.75;;;;;;;;;;4914393;29;20029;-87
2022/05/06 02:29:11;;;;;;;8.80;8.00;;;;;;;;;;4915113;29;20119;-87
2022/05/06 02:34:22;;;;;;;8.60;7.28;;;;;;;;;;4905882;29;20043;-87
2022/05/06 02:36:48;;;;;;;9.68;8.68;;;;;;;;;;4916055;29;20032;-86
2022/05/06 02:39:14;;;;;;;9.48;8.60;;;;;;;;;;4914692;29;20505;-86
2022/05/06 02:41:40;;;;;;;12.25;9.93;;;;;;;;;;4922512;29;20029;-86
2022/05/06 02:44:07;;;;;;;9.85;8.95;;;;;;;;;;4930475;29;20045;-86
2022/05/06 02:46:36;;;;;;;9.38;8.48;;;;;;;;;;4916133;29;20061;-87
2022/05/06 02:49:03;;;;;;;8.93;8.02;;;;;;;;;;4929617;29;20008;-87
2022/05/06 02:51:29;;;;;;;8.57;7.70;;;;;;;;;;4932786;29;20027;-86
2022/05/06 02:53:57;;;;;;;8.25;7.55;;;;;;;;;;4937744;29;20032;-86
2022/05/06 02:56:26;;;;;;;8.38;7.65;;;;;;;;;;4932298;29;20036;-87
2022/05/06 02:58:52;;;;;;;9.35;8.45;;;;;;;;;;4934735;29;20001;-85
2022/05/06 03:01:18;;;;;;;9.50;8.57;;;;;;;;;;4934568;29;20036;-87
2022/05/06 03:03:45;;;;;;;9.05;7.10;;;;;;;;;;4932959;29;20064;-86
2022/05/06 03:06:11;;;;;;;7.75;6.95;;;;;;;;;;4933657;29;20024;-86
2022/05/06 03:08:37;;;;;;;8.23;6.90;;;;;;;;;;4934559;29;20051;-85
2022/05/06 03:11:03;;;;;;;9.23;7.32;;;;;;;;;;4931222;29;20049;-86
2022/05/06 03:13:29;;;;;;;7.28;6.55;;;;;;;;;;4918219;29;20033;-86
2022/05/06 03:15:56;;;;;;;7.03;6.38;;;;;;;;;;4925504;29;20100;-85
2022/05/06 03:18:22;;;;;;;8.80;7.90;;;;;;;;;;4926777;29;20032;-86
2022/05/06 03:20:48;;;;;;;8.07;6.68;;;;;;;;;;4929389;29;20032;-84
2022/05/06 03:23:15;;;;;;;8.63;7.70;;;;;;;;;;4925098;29;20032;-85
2022/05/06 03:25:41;;;;;;;8.48;7.63;;;;;;;;;;4931989;29;20075;-86
2022/05/06 03:28:07;;;;;;;9.35;7.82;;;;;;;;;;4915856;29;20485;-84
2022/05/06 03:30:44;;;;;;;8.48;7.68;;;;;;;;;;4932787;29;20163;-85
2022/05/06 03:33:11;;;;;;;9.40;7.55;;;;;;;;;;4930490;29;20117;-83
2022/05/06 03:35:38;;;;;;;8.18;7.38;;;;;;;;;;4931551;29;20068;-85
2022/05/06 03:38:05;;;;;;;8.10;7.30;;;;;;;;;;4917188;29;20055;-84
2022/05/06 03:40:32;;;;;;;8.10;7.30;;;;;;;;;;4931019;29;20029;-87
2022/05/06 03:42:58;;;;;;;7.85;6.78;;;;;;;;;;4930861;29;20033;-85
2022/05/06 03:45:25;;;;;;;8.73;7.68;;;;;;;;;;4927565;29;20104;-85
2022/05/06 03:47:52;;;;;;;8.15;7.35;;;;;;;;;;4929938;29;20016;-86
2022/05/06 03:53:03;;;;;;;8.80;7.95;;;;;;;;;;4911406;29;20068;-82
2022/05/06 03:55:29;;;;;;;9.65;8.18;;;;;;;;;;4926747;29;20041;-85
2022/05/06 03:57:55;;;;;;;10.02;9.13;;;;;;;;;;4920185;29;20471;-83
2022/05/06 04:00:22;;;;;;;9.50;8.43;;;;;;;;;;4916198;29;20028;-89
2022/05/06 04:02:48;;;;;;;8.75;7.55;;;;;;;;;;4915867;29;20053;-85
2022/05/06 04:05:14;;;;;;;8.70;7.90;;;;;;;;;;4915571;29;20127;-86
2022/05/06 04:07:41;;;;;;;9.82;8.82;;;;;;;;;;4915819;29;20080;-85
2022/05/06 04:10:07;;;;;;;9.38;8.57;;;;;;;;;;4916005;29;20063;-85
2022/05/06 04:12:34;;;;;;;9.38;8.48;;;;;;;;;;4916401;29;20553;-89
2022/05/06 04:15:00;;;;;;;9.40;8.48;;;;;;;;;;4901583;29;20040;-85
2022/05/06 04:17:26;;;;;;;10.85;9.75;;;;;;;;;;4902416;29;20037;-85
2022/05/06 04:25:22;;;;;;;10.63;8.90;;;;;;;;;;4901775;29;20585;-86
2022/05/06 04:27:48;;;;;;;10.55;8.60;;;;;;;;;;4915780;29;20056;-85
2022/05/06 04:30:15;;;;;;;9.95;8.02;;;;;;;;;;4915791;29;20064;-86
2022/05/06 04:32:41;;;;;;;11.48;8.82;;;;;;;;;;4915726;29;20031;-85
2022/05/06 04:35:09;;;;;;;10.23;8.65;;;;;;;;;;4915642;29;20032;-87
2022/05/06 04:37:36;;;;;;;13.00;9.52;;;;;;;;;;4915567;29;20043;-87
2022/05/06 04:40:04;;;;;;;10.68;9.55;;;;;;;;;;4914785;29;20036;-85
2022/05/06 04:42:30;;;;;;;10.18;8.82;;;;;;;;;;4916057;29;20029;-85
2022/05/06 04:44:56;;;;;;;12.43;10.68;;;;;;;;;;4900644;29;20033;-86
2022/05/06 04:47:22;;;;;;;10.57;8.95;;;;;;;;;;4915212;29;20032;-87
2022/05/06 04:49:48;;;;;;;11.25;10.05;;;;;;;;;;4915344;29;20032;-86
2022/05/06 04:52:14;;;;;;;9.90;8.95;;;;;;;;;;4915410;29;20033;-86
2022/05/06 04:54:40;;;;;;;13.65;10.07;;;;;;;;;;4915216;29;20024;-86
2022/05/06 04:57:07;;;;;;;9.27;8.38;;;;;;;;;;4917013;29;20050;-86
2022/05/06 04:59:33;;;;;;;10.23;8.90;;;;;;;;;;4919108;29;20028;-85
2022/05/06 05:01:59;;;;;;;10.77;8.98;;;;;;;;;;4933853;29;20123;-83
2022/05/06 05:04:29;;;;;;;8.45;7.65;;;;;;;;;;4932756;29;20024;-86
2022/05/06 05:06:55;;;;;;;9.77;8.77;;;;;;;;;;4914890;29;20052;-86
2022/05/06 05:09:21;;;;;;;9.23;7.22;;;;;;;;;;4914662;29;20111;-84
2022/05/06 05:11:47;;;;;;;7.97;7.25;;;;;;;;;;4914308;29;20040;-84
2022/05/06 05:14:14;;;;;;;8.43;7.60;;;;;;;;;;4914413;29;20073;-86
2022/05/06 05:16:40;;;;;;;11.75;8.45;;;;;;;;;;4914634;29;20104;-88
2022/05/06 05:19:06;;;;;;;9.40;7.55;;;;;;;;;;4914673;29;20025;-85
2022/05/06 05:21:32;;;;;;;7.75;6.90;;;;;;;;;;4914851;29;20165;-86
2022/05/06 05:23:59;;;;;;;9.20;7.40;;;;;;;;;;4914205;29;20529;-84
2022/05/06 05:26:25;;;;;;;6.88;6.15;;;;;;;;;;4915438;29;20032;-91
2022/05/06 05:28:52;;;;;;;10.07;8.38;;;;;;;;;;4914894;29;20497;-88
2022/05/06 05:31:18;;;;;;;10.55;8.05;;;;;;;;;;4908096;29;20044;-86
2022/05/06 05:33:44;;;;;;;11.10;8.07;;;;;;;;;;4906685;29;20028;-87
2022/05/06 05:36:10;;;;;;;7.93;6.60;;;;;;;;;;4928565;29;20054;-85
2022/05/06 05:38:38;;;;;;;10.82;8.88;;;;;;;;;;4918456;29;20024;-89
2022/05/06 05:41:05;;;;;;;8.98;7.68;;;;;;;;;;4917171;29;20103;-88
2022/05/06 05:49:01;;;;;;;9.82;7.55;;;;;;;;;;4919144;29;20461;-89
2022/05/06 05:51:27;;;;;;;8.35;6.60;;;;;;;;;;4901963;29;20043;-88
2022/05/06 05:53:53;;;;;;;7.50;6.53;;;;;;;;;;4901584;29;20036;-89
2022/05/06 05:56:20;;;;;;;9.43;8.07;;;;;;;;;;4901392;29;20043;-89
2022/05/06 05:58:46;;;;;;;13.82;8.57;;;;;;;;;;4918801;29;20024;-89
2022/05/06 06:01:24;;;;;;;9.70;8.00;;;;;;;;;;4901779;29;20043;-85
2022/05/06 06:03:50;;;;;;;9.32;7.22;;;;;;;;;;4901206;29;20024;-86
2022/05/06 06:06:17;;;;;;;8.07;6.53;;;;;;;;;;4901695;29;20469;-88
2022/05/06 06:08:43;;;;;;;7.07;6.25;;;;;;;;;;4901318;29;20031;-83
2022/05/06 06:11:09;;;;;;;7.00;5.97;;;;;;;;;;4902143;29;20032;-86
2022/05/06 06:13:41;;;;;;;8.15;6.88;;;;;;;;;;4918454;29;20020;-88
2022/05/06 06:16:26;;;;;;;10.88;7.32;;;;;;;;;;4901584;29;20039;-88
2022/05/06 06:19:00;;;;;;;9.45;7.03;;;;;;;;;;4901737;29;20119;-89
2022/05/06 06:21:35;;;;;;;11.50;7.40;;;;;;;;;;4901104;29;20422;-89
2022/05/06 06:24:22;;;;;;;7.50;5.97;;;;;;;;;;4901834;29;20025;-90
2022/05/06 06:26:48;;;;;;;9.57;7.03;;;;;;;;;;4902341;29;20460;-85
2022/05/06 06:29:14;;;;;;;7.20;6.13;;;;;;;;;;4922007;29;20442;-86
2022/05/06 06:31:40;;;;;;;7.20;6.25;;;;;;;;;;4905797;29;20466;-86
2022/05/06 06:34:07;;;;;;;12.00;7.05;;;;;;;;;;4905949;29;20479;-92
2022/05/06 06:39:26;;;;;;;6.82;5.50;;;;;;;;;;4921286;29;20028;-85
2022/05/06 06:41:55;;;;;;;9.40;6.35;;;;;;;;;;4920362;29;20035;-92
2022/05/06 06:44:27;;;;;;;9.32;6.57;;;;;;;;;;4904864;29;20031;-90
2022/05/06 06:47:08;;;;;;;6.80;5.57;;;;;;;;;;4904281;29;20032;-92
2022/05/06 06:49:40;;;;;;;6.70;5.38;;;;;;;;;;4904526;29;20100;-92
2022/05/06 06:52:09;;;;;;;8.82;6.35;;;;;;;;;;4904558;29;20115;-92
2022/05/06 06:54:35;;;;;;;6.63;5.93;;;;;;;;;;4904076;29;20020;-86
2022/05/06 06:57:01;;;;;;;7.88;6.03;;;;;;;;;;4904786;29;20040;-84
2022/05/06 06:59:27;;;;;;;7.10;5.55;;;;;;;;;;4906652;29;20047;-95
2022/05/06 07:01:57;;;;;;;12.15;5.93;;;;;;;;;;4908215;29;20200;-96
2022/05/06 07:04:26;;;;;;;8.13;6.50;;;;;;;;;;4905750;29;20031;-83
2022/05/06 07:12:43;;;;;;;11.50;7.10;;;;;;;;;;4902736;29;20073;-95
2022/05/06 07:15:12;;;;;;;8.27;6.78;;;;;;;;;;4901157;29;20039;-95
2022/05/06 07:17:42;;;;;;;7.85;5.70;;;;;;;;;;4912194;29;20044;-93
2022/05/06 07:20:11;;;;;;;10.65;7.13;;;;;;;;;;4940200;23;20043;-92
2022/05/06 07:22:54;;;;;;;10.13;6.20;;;;;;;;;;4941913;29;20024;-91
2022/05/06 07:25:21;;;;;;;6.95;5.60;;;;;;;;;;4941865;29;20039;-83
2022/05/06 07:27:47;;;;;;;6.60;5.90;;;;;;;;;;4944536;29;20027;-91
2022/05/06 07:30:19;;;;;;;8.73;5.70;;;;;;;;;;4964625;29;20028;-91
2022/05/06 07:32:51;;;;;;;6.38;5.63;;;;;;;;;;4959665;28;20030;-91
2022/05/06 07:35:24;;;;;;;7.00;6.00;;;;;;;;;;4960879;28;20121;-92
2022/05/06 07:37:53;;;;;;;9.05;6.18;;;;;;;;;;4960653;28;20066;-90
2022/05/06 07:40:22;;;;;;;8.80;5.72;;;;;;;;;;4960698;28;20085;-88
2022/05/06 07:42:52;;;;;;;7.75;6.30;;;;;;;;;;4949503;29;20126;-87
2022/05/06 07:45:28;;;;;;;8.18;6.25;;;;;;;;;;4946952;29;20086;-91
2022/05/06 07:48:03;;;;;;;6.80;6.10;;;;;;;;;;4941903;29;20035;-95
2022/05/06 07:50:45;;;;;;;6.90;6.10;;;;;;;;;;4941487;29;20523;-93
2022/05/06 07:53:32;;;;;;;8.10;5.80;;;;;;;;;;4941968;29;20097;-95
2022/05/06 07:56:01;;;;;;;8.20;6.38;;;;;;;;;;4941419;29;20604;-95
2022/05/06 07:59:04;;;;;;;8.65;5.78;;;;;;;;;;4943720;29;20074;-90
2022/05/06 08:04:48;;;;;;;10.68;6.22;;;;;;;;;;4904320;29;20046;-94
2022/05/06 08:07:21;;;;;;;9.35;6.65;;;;;;;;;;4941105;29;20043;-94
2022/05/06 08:09:50;;;;;;;8.98;6.43;;;;;;;;;;4941393;29;20028;-93
2022/05/06 08:12:31;;;;;;;8.73;6.20;;;;;;;;;;4941701;29;20031;-89
2022/05/06 08:15:00;;;;;;;8.25;6.43;;;;;;;;;;4941315;29;20066;-84
2022/05/06 08:17:29;;;;;;;7.05;5.70;;;;;;;;;;4945182;29;20034;-89
2022/05/06 08:19:59;;;;;;;7.65;6.00;;;;;;;;;;4936852;29;20126;-88
2022/05/06 08:22:27;;;;;;;7.72;6.28;;;;;;;;;;4937063;29;20378;-81
2022/05/06 08:24:56;;;;;;;9.60;6.43;;;;;;;;;;4932723;29;20045;-90
2022/05/06 08:27:25;;;;;;;7.30;6.60;;;;;;;;;;4937566;29;20023;-91
2022/05/06 08:33:49;;;;;;;7.07;5.95;;;;;;;;;;4939369;29;20114;-89
2022/05/06 08:36:15;;;;;;;7.45;6.57;;;;;;;;;;4937551;29;20048;-85
2022/05/06 08:38:44;;;;;;;9.60;7.20;;;;;;;;;;4936888;29;20031;-85
2022/05/06 08:41:11;;;;;;;8.98;6.80;;;;;;;;;;4937045;29;20038;-82
2022/05/06 08:50:50;;;;;;;10.40;6.72;;;;;;;;;;4938142;29;20075;-90
2022/05/06 08:52:14;;;;;;;7.75;6.95;;;;;;;;;;4939255;29;20070;-84
2022/05/06 08:54:40;;;;;;;10.25;7.43;;;;;;;;;;4936965;29;20519;-81
2022/05/06 08:57:07;;;;;;;9.23;7.80;;;;;;;;;;4936237;29;20090;-84
2022/05/06 08:59:33;;;;;;;12.55;8.27;;;;;;;;;;4935526;29;20020;-83
2022/05/06 09:01:59;;;;;;;9.68;7.70;;;;;;;;;;4936360;29;20036;-84
2022/05/06 09:04:25;;;;;;;9.23;7.15;;;;;;;;;;4936081;29;20129;-83
2022/05/06 09:07:12;;;;;;;9.90;7.90;;;;;;;;;;4935527;29;20031;-81
2022/05/06 09:09:38;;;;;;;8.75;7.30;;;;;;;;;;4933822;29;20035;-83
2022/05/06 09:17:45;;;;;;;10.82;7.80;;;;;;;;;;4947024;29;20506;-83
2022/05/06 09:20:18;;;;;;;11.35;7.47;;;;;;;;;;4954574;29;20058;-83
2022/05/06 09:22:45;;;;;;;11.30;8.30;;;;;;;;;;4954895;29;20028;-82
2022/05/06 09:25:11;;;;;;;8.43;7.53;;;;;;;;;;4954752;29;20122;-84
2022/05/06 09:27:37;;;;;;;10.32;8.73;;;;;;;;;;4949167;29;20043;-81
2022/05/06 09:30:11;;;;;;;9.05;7.18;;;;;;;;;;4943598;29;20028;-83
2022/05/06 09:32:37;;;;;;;10.02;8.65;;;;;;;;;;4936760;29;20028;-83
2022/05/06 09:35:09;;;;;;;10.23;8.25;;;;;;;;;;4936413;29;20047;-83
2022/05/06 09:37:39;;;;;;;9.63;8.50;;;;;;;;;;4936414;29;20095;-83
2022/05/06 09:40:09;;;;;;;9.55;8.60;;;;;;;;;;4936334;29;20303;-83
2022/05/06 09:42:39;;;;;;;9.13;7.32;;;;;;;;;;4935166;29;20485;-83
2022/05/06 09:45:06;;;;;;;11.60;7.97;;;;;;;;;;4931922;29;20044;-83
2022/05/06 09:47:35;;;;;;;7.57;6.53;;;;;;;;;;4916150;29;20088;-84
2022/05/06 09:50:05;;;;;;;14.20;8.60;;;;;;;;;;4916206;29;20405;-84
2022/05/06 09:52:31;;;;;;;9.70;8.32;;;;;;;;;;4921317;29;20024;-84
2022/05/06 09:55:00;;;;;;;9.23;8.05;;;;;;;;;;4936603;29;20036;-84
2022/05/06 09:57:26;;;;;;;10.85;8.38;;;;;;;;;;4950879;29;20054;-84
2022/05/06 09:59:53;;;;;;;8.75;7.55;;;;;;;;;;4951127;29;20389;-83
2022/05/06 10:02:19;;;;;;;13.43;9.85;;;;;;;;;;4951181;28;20038;-81
2022/05/06 10:04:47;;;;;;;11.50;8.38;;;;;;;;;;4951379;29;20058;-85
2022/05/06 10:07:18;;;;;;;14.10;7.97;;;;;;;;;;4951570;29;20035;-86
2022/05/06 10:10:05;;;;;;;12.40;8.98;;;;;;;;;;4958971;28;20119;-90
2022/05/06 10:12:35;;;;;;;8.80;7.88;;;;;;;;;;4951918;29;20034;-83
2022/05/06 10:15:05;;;;;;;10.07;8.75;;;;;;;;;;4936337;29;20059;-82
2022/05/06 10:17:52;;;;;;;12.25;8.95;;;;;;;;;;4934982;29;20115;-82
2022/05/06 10:20:41;;;;;;;12.25;9.45;;;;;;;;;;4934666;29;20101;-87
2022/05/06 10:23:18;;;;;;;11.10;9.90;;;;;;;;;;4935091;29;20882;-85
2022/05/06 10:25:45;;;;;;;11.48;8.73;;;;;;;;;;4936512;29;20028;-81
2022/05/06 10:34:10;;;;;;;8.13;6.95;;;;;;;;;;4936940;29;20131;-88
2022/05/06 10:36:43;;;;;;;11.65;8.35;;;;;;;;;;4935415;29;20031;-89
2022/05/06 10:39:18;;;;;;;11.98;9.60;;;;;;;;;;4936469;29;20039;-89
2022/05/06 10:42:02;;;;;;;9.93;8.32;;;;;;;;;;4955930;29;20110;-90
2022/05/06 10:44:35;;;;;;;11.60;8.68;;;;;;;;;;4954748;29;20047;-92
2022/05/06 10:47:01;;;;;;;;;;;;;;;;;;4955066;29;20020;-89
2022/05/06 10:49:40;;;;;;;12.75;10.18;;;;;;;;;;4954490;29;19914;-91
2022/05/06 10:52:20;;;;;;;10.73;9.63;;;;;;;;;;4954578;29;20031;-89
2022/05/06 10:54:50;;;;;;;9.55;8.55;;;;;;;;;;4944346;29;20042;-88
2022/05/06 10:57:17;;;;;;;10.73;8.98;;;;;;;;;;4935386;29;20031;-89
2022/05/06 10:59:49;;;;;;;9.63;8.65;;;;;;;;;;4934460;29;20038;-88
2022/05/06 11:02:16;;;;;;;13.30;8.63;;;;;;;;;;4935414;29;20095;-87
2022/05/06 11:04:49;;;;;;;9.57;8.57;;;;;;;;;;4935657;29;20032;-89
2022/05/06 11:07:17;;;;;;;9.57;8.57;;;;;;;;;;4935408;29;20172;-88
2022/05/06 11:09:43;;;;;;;9.23;7.97;;;;;;;;;;4940804;23;20071;-91
2022/05/06 11:12:09;;;;;;;13.77;8.52;;;;;;;;;;4900522;29;20389;-89
2022/05/06 11:14:36;;;;;;;14.20;8.90;;;;;;;;;;4914920;29;20064;-89
2022/05/06 11:17:15;;;;;;;9.85;8.30;;;;;;;;;;4899249;29;20043;-87
2022/05/06 11:19:41;;;;;;;12.05;9.40;;;;;;;;;;4922140;29;20051;-84
2022/05/06 11:22:11;;;;;;;10.38;9.02;;;;;;;;;;4916250;29;20034;-91
2022/05/06 11:24:37;;;;;;;13.15;9.40;;;;;;;;;;4904597;29;20048;-91
2022/05/06 11:27:16;;;;;;;11.38;10.05;;;;;;;;;;4904018;29;20024;-87
2022/05/06 11:29:51;;;;;;;10.90;9.15;;;;;;;;;;4904300;29;20028;-87
2022/05/06 11:32:18;;;;;;;11.40;10.20;;;;;;;;;;4904052;29;20171;-90
2022/05/06 11:34:59;;;;;;;12.60;9.57;;;;;;;;;;4904139;29;20079;-86
2022/05/06 11:37:27;;;;;;;10.85;9.70;;;;;;;;;;4900203;29;20039;-88
2022/05/06 11:40:39;;;;;;;11.82;9.75;;;;;;;;;;4914825;29;20027;-90
2022/05/06 11:42:40;;;;;;;11.23;10.13;;;;;;;;;;4900230;29;20048;-82
2022/05/06 11:48:10;;;;;;;12.82;11.27;;;;;;;;;;4918155;29;20678;-93
2022/05/06 11:50:40;;;;;;;13.00;10.68;;;;;;;;;;4888340;29;20028;-92
2022/05/06 11:53:15;;;;;;;12.48;11.15;;;;;;;;;;4901532;29;20040;-91
2022/05/06 11:55:47;;;;;;;12.40;10.48;;;;;;;;;;4901566;29;20038;-89
2022/05/06 11:58:17;;;;;;;13.52;12.25;;;;;;;;;;4900485;29;20147;-90
2022/05/06 12:00:44;;;;;;;14.40;12.80;;;;;;;;;;4905669;29;20486;-88
2022/05/06 12:03:25;;;;;;;14.38;12.82;;;;;;;;;;4917983;29;20028;-91
2022/05/06 12:06:11;;;;;;;14.27;12.63;;;;;;;;;;4903422;29;20032;-90
2022/05/06 12:08:44;;;;;;;17.38;14.13;;;;;;;;;;4900948;29;20056;-89
2022/05/06 12:11:10;;;;;;;14.55;11.73;;;;;;;;;;4936216;29;20047;-89
2022/05/06 12:13:40;;;;;;;13.80;11.95;;;;;;;;;;4937979;29;20040;-87
2022/05/06 12:16:14;;;;;;;15.40;11.57;;;;;;;;;;4938616;29;20146;-86
2022/05/06 12:19:02;;;;;;;14.82;13.27;;;;;;;;;;4938140;29;20095;-88
2022/05/06 12:21:29;;;;;;;12.80;11.60;;;;;;;;;;4935500;29;20038;-93
2022/05/06 12:24:10;;;;;;;14.88;13.27;;;;;;;;;;4939235;29;20031;-93
2022/05/06 12:27:01;;;;;;;14.98;10.80;;;;;;;;;;4937800;29;20028;-92
2022/05/06 12:29:28;;;;;;;13.57;12.18;;;;;;;;;;4931157;29;20031;-88
2022/05/06 12:32:04;;;;;;;13.15;11.48;;;;;;;;;;4922320;29;20024;-90
2022/05/06 12:34:36;;;;;;;14.48;12.70;;;;;;;;;;4927093;29;20030;-90
2022/05/06 12:39:57;;;;;;;;;;;;;;;;;;4938939;29;20042;-87
2022/05/06 12:42:37;;;;;;;23.83;13.02;;;;;;;;;;4919547;29;19983;-95
2022/05/06 12:45:04;;;;;;;28.27;14.00;;;;;;;;;;4937976;29;20032;-93
2022/05/06 12:50:18;;;;;;;20.25;15.25;;;;;;;;;;4938087;29;20039;-90
2022/05/06 12:52:44;;;;;;;22.75;14.23;;;;;;;;;;4923867;29;20063;-93
2022/05/06 12:55:10;;;;;;;36.83;17.17;;;;;;;;;;4938407;29;20480;-88
2022/05/06 12:57:39;;;;;;;18.30;15.70;;;;;;;;;;4927744;29;20040;-84
2022/05/06 13:00:06;;;;;;;14.13;12.73;;;;;;;;;;4921058;29;20079;-91
2022/05/06 13:02:32;;;;;;;15.05;13.02;;;;;;;;;;4920824;29;20070;-92
2022/05/06 13:05:01;;;;;;;19.88;14.45;;;;;;;;;;4921954;29;20055;-92
2022/05/06 13:07:27;;;;;;;15.57;13.85;;;;;;;;;;4920813;29;20027;-85
2022/05/06 13:09:54;;;;;;;16.00;13.68;;;;;;;;;;4924819;29;20051;-85
2022/05/06 13:12:20;;;;;;;15.50;13.30;;;;;;;;;;4938118;29;20024;-86
2022/05/06 13:14:46;;;;;;;15.38;13.05;;;;;;;;;;4937397;29;20104;-85
2022/05/06 13:17:13;;;;;;;15.45;12.60;;;;;;;;;;4936588;29;20063;-87
2022/05/06 13:19:39;;;;;;;12.82;11.52;;;;;;;;;;4936084;29;20024;-93
2022/05/06 13:22:05;;;;;;;14.27;12.80;;;;;;;;;;4936523;29;20039;-90
2022/05/06 13:24:32;;;;;;;14.40;12.90;;;;;;;;;;4936795;29;20024;-88
2022/05/06 13:26:58;;;;;;;15.68;14.07;;;;;;;;;;4938047;29;20473;-90
2022/05/06 13:29:24;;;;;;;14.30;12.07;;;;;;;;;;4939208;29;20038;-86
2022/05/06 13:31:50;;;;;;;15.85;14.30;;;;;;;;;;4947020;29;20028;-92
2022/05/06 13:34:19;;;;;;;16.65;13.73;;;;;;;;;;4939489;29;20031;-84
2022/05/06 13:36:49;;;;;;;17.50;14.48;;;;;;;;;;4938186;29;20035;-93
2022/05/06 13:39:15;;;;;;;16.83;15.05;;;;;;;;;;4939766;29;20055;-91
2022/05/06 13:41:41;;;;;;;15.88;13.30;;;;;;;;;;4938638;29;20035;-92
2022/05/06 13:44:10;;;;;;;14.43;12.00;;;;;;;;;;4946553;29;20032;-92
2022/05/06 13:46:43;;;;;;;12.07;10.88;;;;;;;;;;4942776;29;20043;-90
2022/05/06 13:49:13;;;;;;;15.73;10.85;;;;;;;;;;4940406;29;20034;-91
2022/05/06 13:51:43;;;;;;;11.73;10.52;;;;;;;;;;4939240;29;20035;-94
2022/05/06 13:54:09;;;;;;;12.18;10.82;;;;;;;;;;4938980;29;20051;-93
2022/05/06 13:59:30;;;;;;;12.13;11.02;;;;;;;;;;4946087;29;20046;-93
2022/05/06 14:01:59;;;;;;;15.20;11.00;;;;;;;;;;4942411;29;20135;-89
2022/05/06 14:04:25;;;;;;;14.27;12.23;;;;;;;;;;4937168;29;20036;-93
2022/05/06 14:06:51;;;;;;;16.55;12.40;;;;;;;;;;4937993;29;20031;-95
2022/05/06 14:09:21;;;;;;;20.98;14.43;;;;;;;;;;4934877;29;20040;-92
2022/05/06 14:11:50;;;;;;;16.60;14.77;;;;;;;;;;4940380;29;20044;-93
2022/05/06 14:14:37;;;;;;;22.05;16.65;;;;;;;;;;4941949;29;20036;-90
2022/05/06 14:17:09;;;;;;;19.38;14.63;;;;;;;;;;4935592;29;20497;-91
2022/05/06 14:19:36;;;;;;;17.30;15.52;;;;;;;;;;4945163;29;20068;-82
2022/05/06 14:22:02;;;;;;;17.60;15.73;;;;;;;;;;4938027;29;20055;-84
2022/05/06 14:24:34;;;;;;;18.20;16.27;;;;;;;;;;4938840;29;20031;-94
2022/05/06 14:27:03;;;;;;;20.58;15.88;;;;;;;;;;4936486;29;20039;-84
2022/05/06 14:29:29;;;;;;;17.17;15.57;;;;;;;;;;4919400;29;20047;-87
2022/05/06 14:31:59;;;;;;;16.33;14.80;;;;;;;;;;4918073;29;20103;-92
2022/05/06 14:34:31;;;;;;;15.90;14.40;;;;;;;;;;4917600;29;20035;-91
2022/05/06 14:36:57;;;;;;;19.80;15.35;;;;;;;;;;4917271;29;20066;-83
2022/05/06 14:39:23;;;;;;;15.65;14.13;;;;;;;;;;4917372;29;20039;-84
2022/05/06 14:41:53;;;;;;;14.38;12.13;;;;;;;;;;4917529;29;20035;-93
2022/05/06 14:44:22;;;;;;;14.18;12.77;;;;;;;;;;4916776;29;20052;-93
2022/05/06 14:46:48;;;;;;;14.85;12.90;;;;;;;;;;4917096;29;20028;-92
2022/05/06 14:49:14;;;;;;;15.98;14.00;;;;;;;;;;4920086;29;20048;-93
2022/05/06 14:51:41;;;;;;;15.25;12.80;;;;;;;;;;4920935;29;20034;-85
2022/05/06 14:54:07;;;;;;;14.98;13.23;;;;;;;;;;4920849;29;20119;-87
2022/05/06 14:56:33;;;;;;;14.82;12.60;;;;;;;;;;4920803;29;20040;-93
2022/05/06 14:58:59;;;;;;;16.42;13.55;;;;;;;;;;4920764;29;20028;-92
2022/05/06 15:01:28;;;;;;;15.23;13.65;;;;;;;;;;4920931;29;20032;-94
2022/05/06 15:03:55;;;;;;;14.90;12.73;;;;;;;;;;4921077;29;20028;-88
2022/05/06 15:06:21;;;;;;;16.23;12.57;;;;;;;;;;4921432;29;20095;-89
2022/05/06 15:08:47;;;;;;;13.63;12.23;;;;;;;;;;4921604;29;20028;-90
2022/05/06 15:11:14;;;;;;;14.20;12.70;;;;;;;;;;4943853;29;20058;-91
2022/05/06 15:13:47;;;;;;;12.95;11.52;;;;;;;;;;4939320;29;20024;-94
2022/05/06 15:16:16;;;;;;;12.35;11.15;;;;;;;;;;4948464;29;20056;-90
2022/05/06 15:21:33;;;;;;;13.60;12.20;;;;;;;;;;4941489;29;20078;-91
2022/05/06 15:24:05;;;;;;;13.27;10.63;;;;;;;;;;4939650;29;20496;-90
2022/05/06 15:26:37;;;;;;;11.50;10.40;;;;;;;;;;4939633;29;20032;-92
2022/05/06 15:29:06;;;;;;;12.73;11.48;;;;;;;;;;4944760;29;20031;-93
2022/05/06 15:31:32;;;;;;;12.40;11.05;;;;;;;;;;4940751;29;20040;-91
2022/05/06 15:34:10;;;;;;;13.23;11.82;;;;;;;;;;4940232;29;20802;-92
2022/05/06 15:36:57;;;;;;;12.10;10.80;;;;;;;;;;4938828;29;20051;-89
2022/05/06 15:39:28;;;;;;;11.80;10.70;;;;;;;;;;4939800;29;20036;-91
2022/05/06 15:41:57;;;;;;;13.70;10.85;;;;;;;;;;4947897;29;20055;-94
2022/05/06 15:44:24;;;;;;;12.00;10.80;;;;;;;;;;4938975;29;20035;-93
2022/05/06 15:46:50;;;;;;;12.18;10.88;;;;;;;;;;4938955;29;20568;-88
2022/05/06 15:49:18;;;;;;;13.63;11.00;;;;;;;;;;4938543;29;20478;-89
2022/05/06 15:51:44;;;;;;;12.05;10.68;;;;;;;;;;4933625;29;20532;-91